createdAt,value
2023-04-11T00:00:06.420Z,639.00
2023-04-11T00:01:06.420Z,639.00
2023-04-11T00:02:06.582Z,638.00
2023-04-11T00:03:06.549Z,644.00
2023-04-11T00:04:06.598Z,641.00
2023-04-11T00:05:06.536Z,639.00
2023-04-11T00:06:06.511Z,638.00
2023-04-11T00:07:06.592Z,641.00
2023-04-11T00:08:06.606Z,635.00
2023-04-11T00:09:06.680Z,635.00
2023-04-11T00:10:06.751Z,635.00
2023-04-11T00:11:06.867Z,638.00
2023-04-11T00:12:06.829Z,638.00
2023-04-11T00:13:06.875Z,633.00
2023-04-11T00:14:06.929Z,638.00
2023-04-11T00:15:06.938Z,637.00
2023-04-11T00:16:07.040Z,638.00
2023-04-11T00:17:07.002Z,634.00
2023-04-11T00:18:07.110Z,639.00
2023-04-11T00:19:07.044Z,641.00
2023-04-11T00:20:07.092Z,644.00
2023-04-11T00:21:07.082Z,641.00
2023-04-11T00:22:07.105Z,642.00
2023-04-11T00:23:07.180Z,630.00
2023-04-11T00:24:07.154Z,638.00
2023-04-11T00:25:07.152Z,642.00
2023-04-11T00:26:07.151Z,639.00
2023-04-11T00:27:07.172Z,636.00
2023-04-11T00:28:07.157Z,630.00
2023-04-11T00:29:07.158Z,644.00
2023-04-11T00:30:07.156Z,635.00
2023-04-11T00:31:07.140Z,639.00
2023-04-11T00:32:07.278Z,637.00
2023-04-11T00:33:07.176Z,637.00
2023-04-11T00:34:07.115Z,637.00
2023-04-11T00:35:07.192Z,635.00
2023-04-11T00:36:07.151Z,638.00
2023-04-11T00:37:07.155Z,638.00
2023-04-11T00:38:07.085Z,638.00
2023-04-11T00:39:07.070Z,636.00
2023-04-11T00:40:07.084Z,639.00
2023-04-11T00:41:07.047Z,638.00
2023-04-11T00:42:07.024Z,635.00
2023-04-11T00:43:07.009Z,638.00
2023-04-11T00:44:07.003Z,638.00
2023-04-11T00:45:06.976Z,634.00
2023-04-11T00:46:07.024Z,639.00
2023-04-11T00:47:06.971Z,623.00
2023-04-11T00:48:06.957Z,640.00
2023-04-11T00:49:06.910Z,628.00
2023-04-11T00:50:06.901Z,629.00
2023-04-11T00:51:06.875Z,628.00
2023-04-11T00:52:06.870Z,627.00
2023-04-11T00:53:06.850Z,625.00
2023-04-11T00:54:06.841Z,633.00
2023-04-11T00:55:06.818Z,631.00
2023-04-11T00:56:06.834Z,639.00
2023-04-11T00:57:06.828Z,632.00
2023-04-11T00:58:06.801Z,636.00
2023-04-11T00:59:06.798Z,635.00
2023-04-11T01:00:06.776Z,639.00
2023-04-11T01:01:06.817Z,630.00
2023-04-11T01:02:06.826Z,630.00
2023-04-11T01:03:06.946Z,631.00
2023-04-11T01:04:06.845Z,629.00
2023-04-11T01:05:06.738Z,632.00
2023-04-11T01:06:06.733Z,633.00
2023-04-11T01:07:06.711Z,631.00
2023-04-11T01:08:06.694Z,631.00
2023-04-11T01:09:06.684Z,628.00
2023-04-11T01:10:06.685Z,628.00
2023-04-11T01:11:06.662Z,624.00
2023-04-11T01:12:06.661Z,620.00
2023-04-11T01:13:06.640Z,623.00
2023-04-11T01:14:06.630Z,628.00
2023-04-11T01:15:06.617Z,627.00
2023-04-11T01:16:06.624Z,632.00
2023-04-11T01:17:06.633Z,627.00
2023-04-11T01:18:06.637Z,624.00
2023-04-11T01:19:06.592Z,621.00
2023-04-11T01:20:06.575Z,625.00
2023-04-11T01:21:06.571Z,621.00
2023-04-11T01:22:06.571Z,628.00
2023-04-11T01:23:06.545Z,622.00
2023-04-11T01:24:06.546Z,613.00
2023-04-11T01:25:06.531Z,621.00
2023-04-11T01:26:06.529Z,620.00
2023-04-11T01:27:06.514Z,614.00
2023-04-11T01:28:06.503Z,619.00
2023-04-11T01:29:06.486Z,624.00
2023-04-11T01:30:06.503Z,621.00
2023-04-11T01:31:06.524Z,618.00
2023-04-11T01:32:06.465Z,618.00
2023-04-11T01:33:06.476Z,617.00
2023-04-11T01:34:06.426Z,611.00
2023-04-11T01:35:06.444Z,604.00
2023-04-11T01:36:06.413Z,615.00
2023-04-11T01:37:06.393Z,614.00
2023-04-11T01:38:06.383Z,612.00
2023-04-11T01:39:06.364Z,616.00
2023-04-11T01:40:06.343Z,615.00
2023-04-11T01:41:06.325Z,618.00
2023-04-11T01:42:06.323Z,605.00
2023-04-11T01:43:06.301Z,609.00
2023-04-11T01:44:06.290Z,607.00
2023-04-11T01:45:06.269Z,616.00
2023-04-11T01:46:06.265Z,616.00
2023-04-11T01:47:06.292Z,608.00
2023-04-11T01:48:06.289Z,607.00
2023-04-11T01:49:06.237Z,609.00
2023-04-11T01:50:06.195Z,605.00
2023-04-11T01:51:06.179Z,602.00
2023-04-11T01:52:06.171Z,603.00
2023-04-11T01:53:06.157Z,598.00
2023-04-11T01:54:06.136Z,599.00
2023-04-11T01:55:06.123Z,604.00
2023-04-11T01:56:06.125Z,604.00
2023-04-11T01:57:06.112Z,598.00
2023-04-11T01:58:06.110Z,598.00
2023-04-11T01:59:06.077Z,599.00
2023-04-11T02:00:06.063Z,599.00
2023-04-11T02:01:06.064Z,600.00
2023-04-11T02:02:06.126Z,603.00
2023-04-11T02:03:06.145Z,604.00
2023-04-11T02:04:06.166Z,612.00
2023-04-11T02:05:06.001Z,606.00
2023-04-11T02:06:06.002Z,608.00
2023-04-11T02:07:05.986Z,602.00
2023-04-11T02:08:05.970Z,603.00
2023-04-11T02:09:05.955Z,604.00
2023-04-11T02:10:05.953Z,601.00
2023-04-11T02:11:05.923Z,604.00
2023-04-11T02:12:05.914Z,600.00
2023-04-11T02:13:05.922Z,607.00
2023-04-11T02:14:05.885Z,598.00
2023-04-11T02:15:05.872Z,601.00
2023-04-11T02:16:05.901Z,600.00
2023-04-11T02:17:05.862Z,603.00
2023-04-11T02:18:05.898Z,603.00
2023-04-11T02:19:05.843Z,589.00
2023-04-11T02:20:05.843Z,593.00
2023-04-11T02:21:05.885Z,603.00
2023-04-11T02:22:05.833Z,599.00
2023-04-11T02:23:05.834Z,594.00
2023-04-11T02:24:05.815Z,594.00
2023-04-11T02:25:05.802Z,596.00
2023-04-11T02:26:05.805Z,601.00
2023-04-11T02:27:05.778Z,599.00
2023-04-11T02:28:08.090Z,599.00
2023-04-11T02:29:05.893Z,589.00
2023-04-11T02:30:05.925Z,598.00
2023-04-11T02:31:06.014Z,594.00
2023-04-11T02:32:05.990Z,598.00
2023-04-11T02:33:06.031Z,598.00
2023-04-11T02:34:05.903Z,596.00
2023-04-11T02:35:05.909Z,596.00
2023-04-11T02:36:05.967Z,591.00
2023-04-11T02:37:05.922Z,592.00
2023-04-11T02:38:05.922Z,598.00
2023-04-11T02:39:05.914Z,591.00
2023-04-11T02:40:05.916Z,597.00
2023-04-11T02:41:05.934Z,589.00
2023-04-11T02:42:05.921Z,593.00
2023-04-11T02:43:05.931Z,594.00
2023-04-11T02:44:05.939Z,589.00
2023-04-11T02:45:05.919Z,594.00
2023-04-11T02:46:12.542Z,590.00
2023-04-11T02:47:06.916Z,590.00
2023-04-11T02:48:05.913Z,589.00
2023-04-11T02:49:05.863Z,587.00
2023-04-11T02:50:05.854Z,589.00
2023-04-11T02:51:05.825Z,594.00
2023-04-11T02:52:05.806Z,590.00
2023-04-11T02:53:05.828Z,589.00
2023-04-11T02:54:05.790Z,595.00
2023-04-11T02:55:05.778Z,593.00
2023-04-11T02:56:05.767Z,590.00
2023-04-11T02:57:05.761Z,588.00
2023-04-11T02:58:05.748Z,592.00
2023-04-11T02:59:05.729Z,586.00
2023-04-11T03:00:05.710Z,578.00
2023-04-11T03:01:05.698Z,589.00
2023-04-11T03:02:05.725Z,590.00
2023-04-11T03:03:05.791Z,591.00
2023-04-11T03:04:05.697Z,594.00
2023-04-11T03:05:05.643Z,591.00
2023-04-11T03:06:05.617Z,592.00
2023-04-11T03:07:05.595Z,590.00
2023-04-11T03:08:05.579Z,589.00
2023-04-11T03:09:05.574Z,595.00
2023-04-11T03:10:05.540Z,586.00
2023-04-11T03:11:05.552Z,586.00
2023-04-11T03:12:05.600Z,582.00
2023-04-11T03:13:05.521Z,588.00
2023-04-11T03:14:05.489Z,586.00
2023-04-11T03:15:05.485Z,588.00
2023-04-11T03:16:05.470Z,585.00
2023-04-11T03:17:05.447Z,580.00
2023-04-11T03:18:05.534Z,583.00
2023-04-11T03:19:05.460Z,586.00
2023-04-11T03:20:05.458Z,579.00
2023-04-11T03:21:05.461Z,584.00
2023-04-11T03:22:05.457Z,588.00
2023-04-11T03:23:05.475Z,584.00
2023-04-11T03:24:05.469Z,580.00
2023-04-11T03:25:05.475Z,586.00
2023-04-11T03:26:05.474Z,587.00
2023-04-11T03:27:05.464Z,584.00
2023-04-11T03:28:05.477Z,586.00
2023-04-11T03:29:05.479Z,595.00
2023-04-11T03:30:05.483Z,590.00
2023-04-11T03:31:05.531Z,591.00
2023-04-11T03:32:05.468Z,588.00
2023-04-11T03:33:05.490Z,586.00
2023-04-11T03:34:05.457Z,591.00
2023-04-11T03:35:05.463Z,589.00
2023-04-11T03:36:05.547Z,588.00
2023-04-11T03:37:05.470Z,588.00
2023-04-11T03:38:05.482Z,586.00
2023-04-11T03:39:05.472Z,581.00
2023-04-11T03:40:05.481Z,586.00
2023-04-11T03:41:05.481Z,592.00
2023-04-11T03:42:05.478Z,583.00
2023-04-11T03:43:05.517Z,591.00
2023-04-11T03:44:05.488Z,584.00
2023-04-11T03:45:05.496Z,576.00
2023-04-11T03:46:05.543Z,587.00
2023-04-11T03:47:05.651Z,591.00
2023-04-11T03:48:05.564Z,594.00
2023-04-11T03:49:05.534Z,585.00
2023-04-11T03:50:05.530Z,583.00
2023-04-11T03:51:05.576Z,580.00
2023-04-11T03:52:05.569Z,578.00
2023-04-11T03:53:05.577Z,576.00
2023-04-11T03:54:05.552Z,571.00
2023-04-11T03:55:05.566Z,575.00
2023-04-11T03:56:05.585Z,578.00
2023-04-11T03:57:05.580Z,578.00
2023-04-11T03:58:05.598Z,572.00
2023-04-11T03:59:05.590Z,578.00
2023-04-11T04:00:05.594Z,565.00
2023-04-11T04:01:05.593Z,576.00
2023-04-11T04:02:05.689Z,582.00
2023-04-11T04:03:05.867Z,578.00
2023-04-11T04:04:05.858Z,584.00
2023-04-11T04:05:05.683Z,578.00
2023-04-11T04:06:05.623Z,579.00
2023-04-11T04:07:05.628Z,580.00
2023-04-11T04:08:05.633Z,580.00
2023-04-11T04:09:05.648Z,579.00
2023-04-11T04:10:05.655Z,582.00
2023-04-11T04:11:05.672Z,582.00
2023-04-11T04:12:05.659Z,585.00
2023-04-11T04:13:05.659Z,583.00
2023-04-11T04:14:05.676Z,574.00
2023-04-11T04:15:05.678Z,580.00
2023-04-11T04:16:05.733Z,576.00
2023-04-11T04:17:05.683Z,575.00
2023-04-11T04:18:05.813Z,580.00
2023-04-11T04:19:05.755Z,578.00
2023-04-11T04:20:05.704Z,582.00
2023-04-11T04:21:05.706Z,581.00
2023-04-11T04:22:05.717Z,586.00
2023-04-11T04:23:05.729Z,574.00
2023-04-11T04:24:05.741Z,580.00
2023-04-11T04:25:05.739Z,576.00
2023-04-11T04:26:05.740Z,570.00
2023-04-11T04:27:05.743Z,574.00
2023-04-11T04:28:05.742Z,581.00
2023-04-11T04:29:05.807Z,571.00
2023-04-11T04:30:05.772Z,568.00
2023-04-11T04:31:05.789Z,566.00
2023-04-11T04:32:05.821Z,572.00
2023-04-11T04:33:05.838Z,571.00
2023-04-11T04:34:05.810Z,573.00
2023-04-11T04:35:05.847Z,573.00
2023-04-11T04:36:05.880Z,577.00
2023-04-11T04:37:05.841Z,573.00
2023-04-11T04:38:05.846Z,569.00
2023-04-11T04:39:05.868Z,571.00
2023-04-11T04:40:05.879Z,572.00
2023-04-11T04:41:05.903Z,569.00
2023-04-11T04:42:05.895Z,574.00
2023-04-11T04:43:05.908Z,579.00
2023-04-11T04:44:05.900Z,578.00
2023-04-11T04:45:05.935Z,578.00
2023-04-11T04:46:05.983Z,571.00
2023-04-11T04:47:05.915Z,572.00
2023-04-11T04:48:05.973Z,572.00
2023-04-11T04:49:05.913Z,573.00
2023-04-11T04:50:05.890Z,574.00
2023-04-11T04:51:05.884Z,574.00
2023-04-11T04:52:05.878Z,586.00
2023-04-11T04:53:05.855Z,581.00
2023-04-11T04:54:05.852Z,576.00
2023-04-11T04:55:05.853Z,579.00
2023-04-11T04:56:05.833Z,579.00
2023-04-11T04:57:05.821Z,582.00
2023-04-11T04:58:05.818Z,574.00
2023-04-11T04:59:05.797Z,573.00
2023-04-11T05:00:05.781Z,573.00
2023-04-11T05:01:05.831Z,568.00
2023-04-11T05:02:05.841Z,578.00
2023-04-11T05:03:06.025Z,573.00
2023-04-11T05:04:05.959Z,575.00
2023-04-11T05:05:05.745Z,572.00
2023-04-11T05:06:05.734Z,573.00
2023-04-11T05:07:05.740Z,574.00
2023-04-11T05:08:05.720Z,569.00
2023-04-11T05:09:05.709Z,574.00
2023-04-11T05:10:05.716Z,564.00
2023-04-11T05:11:05.678Z,564.00
2023-04-11T05:12:07.146Z,564.00
2023-04-11T05:13:05.668Z,572.00
2023-04-11T05:14:05.656Z,576.00
2023-04-11T05:15:05.657Z,579.00
2023-04-11T05:16:05.666Z,577.00
2023-04-11T05:17:05.728Z,581.00
2023-04-11T05:18:05.799Z,577.00
2023-04-11T05:19:05.702Z,576.00
2023-04-11T05:20:05.699Z,578.00
2023-04-11T05:21:05.728Z,579.00
2023-04-11T05:22:05.730Z,579.00
2023-04-11T05:23:05.738Z,576.00
2023-04-11T05:24:05.819Z,579.00
2023-04-11T05:25:05.798Z,577.00
2023-04-11T05:26:05.781Z,573.00
2023-04-11T05:27:05.791Z,569.00
2023-04-11T05:28:05.806Z,567.00
2023-04-11T05:29:05.813Z,573.00
2023-04-11T05:30:05.810Z,575.00
2023-04-11T05:31:05.878Z,576.00
2023-04-11T05:32:05.841Z,571.00
2023-04-11T05:33:05.867Z,571.00
2023-04-11T05:34:05.817Z,572.00
2023-04-11T05:35:05.809Z,572.00
2023-04-11T05:36:06.008Z,576.00
2023-04-11T05:37:05.774Z,590.00
2023-04-11T05:38:05.757Z,615.00
2023-04-11T05:39:05.749Z,656.00
2023-04-11T05:40:05.723Z,575.00
2023-04-11T05:41:05.715Z,592.00
2023-04-11T05:42:06.795Z,632.00
2023-04-11T05:43:05.669Z,758.00
2023-04-11T05:44:05.658Z,1052.00
2023-04-11T05:45:05.822Z,1170.00
2023-04-11T05:46:05.665Z,1246.00
2023-04-11T05:47:05.598Z,1304.00
2023-04-11T05:48:05.649Z,1377.00
2023-04-11T05:49:05.610Z,1443.00
2023-04-11T05:50:05.617Z,1478.00
2023-04-11T05:51:06.032Z,1516.00
2023-04-11T05:52:05.674Z,1523.00
2023-04-11T05:53:05.705Z,1551.00
2023-04-11T05:54:05.811Z,1559.00
2023-04-11T05:55:05.741Z,1584.00
2023-04-11T05:56:05.794Z,1577.00
2023-04-11T05:57:05.789Z,1558.00
2023-04-11T05:58:05.755Z,1532.00
2023-04-11T05:59:06.212Z,1517.00
2023-04-11T06:00:05.727Z,1534.00
2023-04-11T06:01:05.731Z,1544.00
2023-04-11T06:02:05.769Z,1542.00
2023-04-11T06:03:05.792Z,1554.00
2023-04-11T06:04:06.032Z,1551.00
2023-04-11T06:05:05.831Z,1571.00
2023-04-11T06:06:05.697Z,1557.00
2023-04-11T06:07:05.810Z,1559.00
2023-04-11T06:08:05.722Z,1542.00
2023-04-11T06:09:05.709Z,1543.00
2023-04-11T06:10:05.704Z,1546.00
2023-04-11T06:11:05.671Z,1543.00
2023-04-11T06:12:05.672Z,1549.00
2023-04-11T06:13:05.637Z,1522.00
2023-04-11T06:14:05.678Z,1530.00
2023-04-11T06:15:05.637Z,1507.00
2023-04-11T06:16:05.625Z,1480.00
2023-04-11T06:17:05.601Z,1480.00
2023-04-11T06:18:05.668Z,1480.00
2023-04-11T06:19:05.566Z,1445.00
2023-04-11T06:20:06.154Z,1435.00
2023-04-11T06:21:05.718Z,1438.00
2023-04-11T06:22:05.515Z,1414.00
2023-04-11T06:23:05.524Z,1410.00
2023-04-11T06:24:05.525Z,1410.00
2023-04-11T06:25:05.492Z,1401.00
2023-04-11T06:26:05.797Z,1391.00
2023-04-11T06:27:05.496Z,1389.00
2023-04-11T06:28:05.461Z,1368.00
2023-04-11T06:29:05.466Z,1356.00
2023-04-11T06:30:05.464Z,1354.00
2023-04-11T06:31:05.500Z,1357.00
2023-04-11T06:32:05.425Z,1353.00
2023-04-11T06:33:05.414Z,1337.00
2023-04-11T06:34:05.400Z,1331.00
2023-04-11T06:35:05.411Z,1315.00
2023-04-11T06:36:06.173Z,1320.00
2023-04-11T06:37:05.337Z,1322.00
2023-04-11T06:38:05.336Z,1299.00
2023-04-11T06:39:05.309Z,1296.00
2023-04-11T06:40:05.322Z,1296.00
2023-04-11T06:41:05.379Z,1293.00
2023-04-11T06:42:05.285Z,1267.00
2023-04-11T06:43:05.281Z,1236.00
2023-04-11T06:44:05.413Z,1223.00
2023-04-11T06:45:06.124Z,1226.00
2023-04-11T06:46:05.337Z,1244.00
2023-04-11T06:47:05.264Z,1265.00
2023-04-11T06:48:05.256Z,1266.00
2023-04-11T06:49:05.256Z,1277.00
2023-04-11T06:50:05.243Z,1308.00
2023-04-11T06:51:05.228Z,1364.00
2023-04-11T06:52:05.236Z,1468.00
2023-04-11T06:53:05.235Z,1502.00
2023-04-11T06:54:05.237Z,1534.00
2023-04-11T06:55:05.229Z,1567.00
2023-04-11T06:56:05.166Z,1607.00
2023-04-11T06:57:05.206Z,1633.00
2023-04-11T06:58:05.211Z,1691.00
2023-04-11T06:59:05.264Z,1707.00
2023-04-11T07:00:05.320Z,1756.00
2023-04-11T07:01:05.345Z,1813.00
2023-04-11T07:02:05.531Z,1826.00
2023-04-11T07:03:05.620Z,1889.00
2023-04-11T07:04:05.561Z,1918.00
2023-04-11T07:05:05.550Z,1962.00
2023-04-11T07:06:05.586Z,1996.00
2023-04-11T07:07:05.627Z,2037.00
2023-04-11T07:08:05.684Z,2089.00
2023-04-11T07:09:05.712Z,2130.00
2023-04-11T07:10:05.764Z,2164.00
2023-04-11T07:11:05.779Z,2212.00
2023-04-11T07:12:05.797Z,2235.00
2023-04-11T07:13:05.821Z,2269.00
2023-04-11T07:14:05.840Z,2315.00
2023-04-11T07:15:05.850Z,2317.00
2023-04-11T07:16:05.845Z,2325.00
2023-04-11T07:17:05.795Z,2338.00
2023-04-11T07:18:05.813Z,2318.00
2023-04-11T07:19:05.754Z,2330.00
2023-04-11T07:20:05.740Z,2354.00
2023-04-11T07:21:05.719Z,2402.00
2023-04-11T07:22:05.695Z,2473.00
2023-04-11T07:23:05.703Z,2513.00
2023-04-11T07:24:05.651Z,2543.00
2023-04-11T07:25:05.625Z,2545.00
2023-04-11T07:26:05.594Z,2546.00
2023-04-11T07:27:05.574Z,2557.00
2023-04-11T07:28:05.569Z,2574.00
2023-04-11T07:29:07.011Z,2602.00
2023-04-11T07:30:05.525Z,2657.00
2023-04-11T07:31:05.514Z,2698.00
2023-04-11T07:32:05.502Z,2727.00
2023-04-11T07:33:05.484Z,2738.00
2023-04-11T07:34:05.443Z,2765.00
2023-04-11T07:35:05.518Z,2788.00
2023-04-11T07:36:05.428Z,2797.00
2023-04-11T07:37:05.373Z,2819.00
2023-04-11T07:38:05.352Z,2840.00
2023-04-11T07:39:05.333Z,2850.00
2023-04-11T07:40:05.321Z,2768.00
2023-04-11T07:41:05.302Z,2776.00
2023-04-11T07:42:05.280Z,2768.00
2023-04-11T07:43:05.352Z,2775.00
2023-04-11T07:44:05.219Z,2777.00
2023-04-11T07:45:05.285Z,2782.00
2023-04-11T07:46:05.221Z,2785.00
2023-04-11T07:47:05.198Z,2777.00
2023-04-11T07:48:05.178Z,2778.00
2023-04-11T07:49:05.416Z,2780.00
2023-04-11T07:50:05.124Z,2758.00
2023-04-11T07:51:05.091Z,2761.00
2023-04-11T07:52:05.076Z,2754.00
2023-04-11T07:53:05.025Z,2706.00
2023-04-11T07:54:05.000Z,2669.00
2023-04-11T07:55:04.964Z,2538.00
2023-04-11T07:56:05.008Z,2343.00
2023-04-11T07:57:04.943Z,2205.00
2023-04-11T07:58:04.908Z,2073.00
2023-04-11T07:59:04.874Z,1995.00
2023-04-11T08:00:04.848Z,1689.00
2023-04-11T08:01:04.839Z,1628.00
2023-04-11T08:02:04.868Z,1578.00
2023-04-11T08:03:05.008Z,1516.00
2023-04-11T08:04:05.367Z,1477.00
2023-04-11T08:05:05.087Z,1159.00
2023-04-11T08:06:04.796Z,1150.00
2023-04-11T08:07:04.848Z,1102.00
2023-04-11T08:08:04.854Z,1007.00
2023-04-11T08:09:04.954Z,635.00
2023-04-11T08:10:04.933Z,625.00
2023-04-11T08:11:04.999Z,520.00
2023-04-11T08:12:05.116Z,528.00
2023-04-11T08:13:05.041Z,515.00
2023-04-11T08:14:05.038Z,474.00
2023-04-11T08:15:05.016Z,469.00
2023-04-11T08:16:05.015Z,497.00
2023-04-11T08:17:10.044Z,440.00
2023-04-11T08:18:05.992Z,400.00
2023-04-11T08:19:04.937Z,400.00
2023-04-11T08:20:04.917Z,400.00
2023-04-11T08:21:04.965Z,400.00
2023-04-11T08:22:04.963Z,400.00
2023-04-11T08:23:06.026Z,400.00
2023-04-11T08:24:04.862Z,400.00
2023-04-11T08:25:04.860Z,400.00
2023-04-11T08:26:04.863Z,400.00
2023-04-11T08:27:04.865Z,400.00
2023-04-11T08:28:04.816Z,400.00
2023-04-11T08:29:04.952Z,400.00
2023-04-11T08:30:04.807Z,400.00
2023-04-11T08:31:04.841Z,400.00
2023-04-11T08:32:04.775Z,400.00
2023-04-11T08:33:04.763Z,400.00
2023-04-11T08:34:06.916Z,400.00
2023-04-11T08:35:04.722Z,400.00
2023-04-11T08:36:04.754Z,400.00
2023-04-11T08:37:04.847Z,402.00
2023-04-11T08:38:04.717Z,415.00
2023-04-11T08:39:04.674Z,451.00
2023-04-11T08:40:04.729Z,518.00
2023-04-11T08:41:04.723Z,560.00
2023-04-11T08:42:04.673Z,591.00
2023-04-11T08:43:04.622Z,613.00
2023-04-11T08:44:04.626Z,655.00
2023-04-11T08:45:04.618Z,711.00
2023-04-11T08:46:04.623Z,771.00
2023-04-11T08:47:04.576Z,841.00
2023-04-11T08:48:04.582Z,889.00
2023-04-11T08:49:04.600Z,944.00
2023-04-11T08:50:04.570Z,1002.00
2023-04-11T08:51:04.591Z,1075.00
2023-04-11T08:52:04.611Z,1121.00
2023-04-11T08:53:04.673Z,1208.00
2023-04-11T08:54:04.638Z,1212.00
2023-04-11T08:55:04.680Z,1239.00
2023-04-11T08:56:04.613Z,1309.00
2023-04-11T08:57:04.594Z,1438.00
2023-04-11T08:58:04.582Z,1642.00
2023-04-11T08:59:04.565Z,1753.00
2023-04-11T09:00:04.543Z,1844.00
2023-04-11T09:01:04.565Z,1888.00
2023-04-11T09:02:04.612Z,1953.00
2023-04-11T09:03:04.553Z,2028.00
2023-04-11T09:04:04.523Z,2119.00
2023-04-11T09:05:04.576Z,2162.00
2023-04-11T09:06:04.584Z,2214.00
2023-04-11T09:07:04.600Z,2301.00
2023-04-11T09:08:04.583Z,2304.00
2023-04-11T09:09:04.555Z,2319.00
2023-04-11T09:10:04.531Z,2363.00
2023-04-11T09:11:04.519Z,2443.00
2023-04-11T09:12:04.497Z,2576.00
2023-04-11T09:13:04.497Z,2313.00
2023-04-11T09:14:04.597Z,2372.00
2023-04-11T09:15:04.560Z,2322.00
2023-04-11T09:16:04.457Z,2405.00
2023-04-11T09:17:04.418Z,2561.00
2023-04-11T09:18:04.406Z,2781.00
2023-04-11T09:19:04.421Z,3085.00
2023-04-11T09:20:04.414Z,3146.00
2023-04-11T09:21:04.321Z,3186.00
2023-04-11T09:22:04.310Z,3203.00
2023-04-11T09:23:04.341Z,3205.00
2023-04-11T09:24:04.269Z,3209.00
2023-04-11T09:25:04.261Z,3218.00
2023-04-11T09:26:04.261Z,3213.00
2023-04-11T09:27:04.277Z,3214.00
2023-04-11T09:28:04.397Z,3229.00
2023-04-11T09:29:04.318Z,3254.00
2023-04-11T09:30:04.199Z,3273.00
2023-04-11T09:31:04.216Z,3267.00
2023-04-11T09:32:04.157Z,3276.00
2023-04-11T09:33:04.182Z,3271.00
2023-04-11T09:34:04.132Z,3263.00
2023-04-11T09:35:04.114Z,3259.00
2023-04-11T09:36:04.195Z,3241.00
2023-04-11T09:37:04.068Z,3237.00
2023-04-11T09:38:04.076Z,3226.00
2023-04-11T09:39:04.056Z,3205.00
2023-04-11T09:40:05.593Z,3204.00
2023-04-11T09:41:04.058Z,3188.00
2023-04-11T09:42:03.972Z,3201.00
2023-04-11T09:43:04.022Z,3192.00
2023-04-11T09:44:04.063Z,3195.00
2023-04-11T09:45:03.906Z,3204.00
2023-04-11T09:46:03.897Z,3208.00
2023-04-11T09:47:03.955Z,3153.00
2023-04-11T09:48:03.930Z,3131.00
2023-04-11T09:49:04.021Z,3154.00
2023-04-11T09:50:03.789Z,3153.00
2023-04-11T09:51:03.812Z,3153.00
2023-04-11T09:52:03.752Z,3141.00
2023-04-11T09:53:03.710Z,3109.00
2023-04-11T09:54:03.992Z,3116.00
2023-04-11T09:55:03.650Z,3082.00
2023-04-11T09:56:03.655Z,3072.00
2023-04-11T09:57:03.620Z,3070.00
2023-04-11T09:58:03.584Z,3063.00
2023-04-11T09:59:03.567Z,3057.00
2023-04-11T10:00:03.536Z,3026.00
2023-04-11T10:01:03.507Z,3029.00
2023-04-11T10:02:03.608Z,3027.00
2023-04-11T10:03:03.606Z,3028.00
2023-04-11T10:04:03.411Z,3029.00
2023-04-11T10:05:03.481Z,3017.00
2023-04-11T10:06:03.366Z,3018.00
2023-04-11T10:07:03.326Z,2999.00
2023-04-11T10:08:03.317Z,2995.00
2023-04-11T10:09:03.320Z,2986.00
2023-04-11T10:10:03.253Z,2985.00
2023-04-11T10:11:03.230Z,2967.00
2023-04-11T10:12:03.242Z,2955.00
2023-04-11T10:13:03.180Z,2948.00
2023-04-11T10:14:03.179Z,2952.00
2023-04-11T10:15:03.282Z,2942.00
2023-04-11T10:16:03.174Z,2931.00
2023-04-11T10:17:03.128Z,2926.00
2023-04-11T10:18:03.204Z,2938.00
2023-04-11T10:19:03.079Z,2937.00
2023-04-11T10:20:03.067Z,2914.00
2023-04-11T10:21:03.053Z,2917.00
2023-04-11T10:22:03.113Z,2914.00
2023-04-11T10:23:03.067Z,2914.00
2023-04-11T10:24:03.086Z,2900.00
2023-04-11T10:25:03.109Z,2893.00
2023-04-11T10:26:03.806Z,2898.00
2023-04-11T10:27:03.146Z,2888.00
2023-04-11T10:28:03.155Z,2899.00
2023-04-11T10:29:03.194Z,2884.00
2023-04-11T10:30:03.208Z,2905.00
2023-04-11T10:31:03.233Z,2881.00
2023-04-11T10:32:03.293Z,2875.00
2023-04-11T10:33:03.332Z,2842.00
2023-04-11T10:34:03.274Z,2825.00
2023-04-11T10:35:03.296Z,2819.00
2023-04-11T10:36:03.392Z,2810.00
2023-04-11T10:37:03.310Z,2784.00
2023-04-11T10:38:03.359Z,2789.00
2023-04-11T10:39:03.385Z,2778.00
2023-04-11T10:40:03.383Z,2778.00
2023-04-11T10:41:03.396Z,2769.00
2023-04-11T10:42:03.428Z,2767.00
2023-04-11T10:43:03.458Z,2760.00
2023-04-11T10:44:03.459Z,2766.00
2023-04-11T10:45:03.489Z,2754.00
2023-04-11T10:46:03.494Z,2768.00
2023-04-11T10:47:03.606Z,2756.00
2023-04-11T10:48:03.693Z,2757.00
2023-04-11T10:49:03.589Z,2751.00
2023-04-11T10:50:03.600Z,2739.00
2023-04-11T10:51:03.641Z,2748.00
2023-04-11T10:52:03.639Z,2739.00
2023-04-11T10:53:03.675Z,2743.00
2023-04-11T10:54:03.950Z,2734.00
2023-04-11T10:55:03.704Z,2737.00
2023-04-11T10:56:03.755Z,2732.00
2023-04-11T10:57:03.739Z,2728.00
2023-04-11T10:58:03.803Z,2715.00
2023-04-11T10:59:03.784Z,2722.00
2023-04-11T11:01:03.887Z,2673.00
2023-04-11T11:02:03.948Z,2650.00
2023-04-11T11:03:04.202Z,2635.00
2023-04-11T11:04:04.345Z,2620.00
2023-04-11T11:05:04.072Z,2620.00
2023-04-11T11:06:03.871Z,2598.00
2023-04-11T11:07:03.860Z,2586.00
2023-04-11T11:08:03.839Z,2564.00
2023-04-11T11:09:03.803Z,2552.00
2023-04-11T11:10:03.762Z,2552.00
2023-04-11T11:11:03.755Z,2540.00
2023-04-11T11:12:03.727Z,2539.00
2023-04-11T11:13:03.727Z,2540.00
2023-04-11T11:14:03.694Z,2522.00
2023-04-11T11:15:03.705Z,2519.00
2023-04-11T11:16:03.731Z,2519.00
2023-04-11T11:17:03.858Z,2520.00
2023-04-11T11:18:03.635Z,2522.00
2023-04-11T11:19:03.622Z,2520.00
2023-04-11T11:20:03.573Z,2533.00
2023-04-11T11:21:03.835Z,2527.00
2023-04-11T11:22:03.775Z,2534.00
2023-04-11T11:23:03.525Z,2512.00
2023-04-11T11:24:03.638Z,2508.00
2023-04-11T11:25:03.483Z,2514.00
2023-04-11T11:26:03.450Z,2507.00
2023-04-11T11:27:03.492Z,2503.00
2023-04-11T11:28:03.472Z,2500.00
2023-04-11T11:29:03.409Z,2514.00
2023-04-11T11:30:03.505Z,2508.00
2023-04-11T11:31:03.528Z,2493.00
2023-04-11T11:32:03.682Z,2492.00
2023-04-11T11:33:03.523Z,2510.00
2023-04-11T11:34:21.324Z,2496.00
2023-04-11T11:35:04.466Z,2496.00
2023-04-11T11:36:03.429Z,2497.00
2023-04-11T11:37:03.446Z,2498.00
2023-04-11T11:38:03.378Z,2500.00
2023-04-11T11:39:03.366Z,2502.00
2023-04-11T11:40:03.374Z,2496.00
2023-04-11T11:41:03.319Z,2481.00
2023-04-11T11:42:03.337Z,2490.00
2023-04-11T11:43:03.294Z,2489.00
2023-04-11T11:44:03.252Z,2489.00
2023-04-11T11:45:03.289Z,2490.00
2023-04-11T11:46:04.747Z,2491.00
2023-04-11T11:47:03.188Z,2485.00
2023-04-11T11:48:03.216Z,2478.00
2023-04-11T11:49:03.169Z,2479.00
2023-04-11T11:50:03.130Z,2484.00
2023-04-11T11:51:03.154Z,2472.00
2023-04-11T11:52:03.167Z,2456.00
2023-04-11T11:53:03.248Z,2467.00
2023-04-11T11:54:03.222Z,2447.00
2023-04-11T11:55:03.262Z,2452.00
2023-04-11T11:56:03.308Z,2447.00
2023-04-11T11:57:03.307Z,2426.00
2023-04-11T11:58:03.337Z,2436.00
2023-04-11T11:59:03.310Z,2436.00
2023-04-11T12:00:03.284Z,2422.00
2023-04-11T12:01:03.267Z,2422.00
2023-04-11T12:02:03.320Z,2406.00
2023-04-11T12:03:03.446Z,2406.00
2023-04-11T12:04:03.378Z,2399.00
2023-04-11T12:05:03.247Z,2391.00
2023-04-11T12:06:03.136Z,2368.00
2023-04-11T12:07:03.136Z,2357.00
2023-04-11T12:08:03.090Z,2358.00
2023-04-11T12:09:03.092Z,2339.00
2023-04-11T12:10:03.047Z,2351.00
2023-04-11T12:11:03.100Z,2339.00
2023-04-11T12:12:03.084Z,2336.00
2023-04-11T12:13:03.080Z,2319.00
2023-04-11T12:14:03.101Z,2328.00
2023-04-11T12:15:03.146Z,2323.00
2023-04-11T12:16:03.213Z,2322.00
2023-04-11T12:17:03.191Z,2305.00
2023-04-11T12:18:03.266Z,2314.00